sensor_id;sensor_type;location;lat;lon;timestamp;P1;durP1;ratioP1;P2;durP2;ratioP2
58139;SDS011;53185;47.378;18.922;2024-01-07T00:00:01;36.20;;;16.25;;
58139;SDS011;53185;47.378;18.922;2024-01-07T00:02:31;36.85;;;15.95;;
58139;SDS011;53185;47.378;18.922;2024-01-07T00:04:59;35.67;;;16.10;;
58139;SDS011;53185;47.378;18.922;2024-01-07T00:07:29;35.55;;;15.80;;
58139;SDS011;53185;47.378;18.922;2024-01-07T00:09:56;38.35;;;17.58;;
58139;SDS011;53185;47.378;18.922;2024-01-07T00:12:25;38.28;;;16.87;;
58139;SDS011;53185;47.378;18.922;2024-01-07T00:14:52;42.33;;;17.80;;
58139;SDS011;53185;47.378;18.922;2024-01-07T00:17:20;38.92;;;16.85;;
58139;SDS011;53185;47.378;18.922;2024-01-07T00:19:49;38.30;;;16.87;;
58139;SDS011;53185;47.378;18.922;2024-01-07T00:22:17;33.95;;;15.20;;
58139;SDS011;53185;47.378;18.922;2024-01-07T00:24:45;39.42;;;17.58;;
58139;SDS011;53185;47.378;18.922;2024-01-07T00:27:13;36.95;;;16.70;;
58139;SDS011;53185;47.378;18.922;2024-01-07T00:29:41;41.15;;;18.67;;
58139;SDS011;53185;47.378;18.922;2024-01-07T00:32:08;40.65;;;15.77;;
58139;SDS011;53185;47.378;18.922;2024-01-07T00:34:36;34.05;;;16.23;;
58139;SDS011;53185;47.378;18.922;2024-01-07T00:37:04;40.53;;;16.52;;
58139;SDS011;53185;47.378;18.922;2024-01-07T00:39:32;37.67;;;17.08;;
58139;SDS011;53185;47.378;18.922;2024-01-07T00:42:00;41.22;;;17.37;;
58139;SDS011;53185;47.378;18.922;2024-01-07T00:44:28;35.67;;;16.02;;
58139;SDS011;53185;47.378;18.922;2024-01-07T00:46:56;40.33;;;17.62;;
58139;SDS011;53185;47.378;18.922;2024-01-07T00:49:23;41.67;;;17.15;;
58139;SDS011;53185;47.378;18.922;2024-01-07T00:51:51;36.78;;;17.75;;
58139;SDS011;53185;47.378;18.922;2024-01-07T00:54:20;35.20;;;17.00;;
58139;SDS011;53185;47.378;18.922;2024-01-07T00:56:48;37.22;;;16.60;;
58139;SDS011;53185;47.378;18.922;2024-01-07T00:59:16;39.78;;;16.55;;
58139;SDS011;53185;47.378;18.922;2024-01-07T01:01:44;34.72;;;15.70;;
58139;SDS011;53185;47.378;18.922;2024-01-07T01:04:14;39.47;;;16.92;;
58139;SDS011;53185;47.378;18.922;2024-01-07T01:06:42;37.53;;;15.25;;
58139;SDS011;53185;47.378;18.922;2024-01-07T01:09:10;32.53;;;15.85;;
58139;SDS011;53185;47.378;18.922;2024-01-07T01:11:38;35.22;;;15.20;;
58139;SDS011;53185;47.378;18.922;2024-01-07T01:14:06;31.25;;;15.57;;
58139;SDS011;53185;47.378;18.922;2024-01-07T01:16:34;34.40;;;14.90;;
58139;SDS011;53185;47.378;18.922;2024-01-07T01:19:02;27.90;;;13.23;;
58139;SDS011;53185;47.378;18.922;2024-01-07T01:21:30;30.05;;;13.10;;
58139;SDS011;53185;47.378;18.922;2024-01-07T01:23:58;35.28;;;15.40;;
58139;SDS011;53185;47.378;18.922;2024-01-07T01:26:29;30.70;;;14.20;;
58139;SDS011;53185;47.378;18.922;2024-01-07T01:29:00;31.33;;;14.75;;
58139;SDS011;53185;47.378;18.922;2024-01-07T01:31:29;29.85;;;14.25;;
58139;SDS011;53185;47.378;18.922;2024-01-07T01:33:57;36.25;;;14.45;;
58139;SDS011;53185;47.378;18.922;2024-01-07T01:36:24;27.67;;;14.95;;
58139;SDS011;53185;47.378;18.922;2024-01-07T01:38:52;30.77;;;14.23;;
58139;SDS011;53185;47.378;18.922;2024-01-07T01:41:23;33.38;;;13.43;;
58139;SDS011;53185;47.378;18.922;2024-01-07T01:43:51;31.17;;;12.80;;
58139;SDS011;53185;47.378;18.922;2024-01-07T02:01:23;22.98;;;11.52;;
58139;SDS011;53185;47.378;18.922;2024-01-07T02:03:53;26.67;;;12.60;;
58139;SDS011;53185;47.378;18.922;2024-01-07T02:06:22;28.48;;;12.02;;
58139;SDS011;53185;47.378;18.922;2024-01-07T02:08:50;26.95;;;12.40;;
58139;SDS011;53185;47.378;18.922;2024-01-07T02:11:19;27.60;;;12.32;;
58139;SDS011;53185;47.378;18.922;2024-01-07T02:13:48;24.08;;;11.35;;
58139;SDS011;53185;47.378;18.922;2024-01-07T02:16:18;26.10;;;11.48;;
58139;SDS011;53185;47.378;18.922;2024-01-07T02:18:46;25.10;;;11.57;;
58139;SDS011;53185;47.378;18.922;2024-01-07T02:21:14;21.08;;;10.73;;
58139;SDS011;53185;47.378;18.922;2024-01-07T02:23:42;19.27;;;10.95;;
58139;SDS011;53185;47.378;18.922;2024-01-07T02:26:10;19.48;;;10.07;;
58139;SDS011;53185;47.378;18.922;2024-01-07T02:28:37;21.00;;;9.68;;
58139;SDS011;53185;47.378;18.922;2024-01-07T02:31:05;17.50;;;10.00;;
58139;SDS011;53185;47.378;18.922;2024-01-07T02:33:32;18.45;;;10.23;;
58139;SDS011;53185;47.378;18.922;2024-01-07T02:36:00;17.27;;;9.38;;
58139;SDS011;53185;47.378;18.922;2024-01-07T02:38:27;19.00;;;9.38;;
58139;SDS011;53185;47.378;18.922;2024-01-07T02:40:55;15.88;;;8.60;;
58139;SDS011;53185;47.378;18.922;2024-01-07T02:43:22;18.55;;;8.90;;
58139;SDS011;53185;47.378;18.922;2024-01-07T02:45:49;19.40;;;8.80;;
58139;SDS011;53185;47.378;18.922;2024-01-07T02:48:17;16.52;;;8.95;;
58139;SDS011;53185;47.378;18.922;2024-01-07T02:50:44;16.80;;;8.63;;
58139;SDS011;53185;47.378;18.922;2024-01-07T02:53:11;17.12;;;8.70;;
58139;SDS011;53185;47.378;18.922;2024-01-07T02:55:39;16.80;;;8.23;;
58139;SDS011;53185;47.378;18.922;2024-01-07T02:58:06;13.62;;;8.35;;
58139;SDS011;53185;47.378;18.922;2024-01-07T03:00:34;14.93;;;7.97;;
58139;SDS011;53185;47.378;18.922;2024-01-07T03:03:02;13.70;;;8.20;;
58139;SDS011;53185;47.378;18.922;2024-01-07T03:05:32;14.27;;;7.78;;
58139;SDS011;53185;47.378;18.922;2024-01-07T03:08:01;13.27;;;7.50;;
58139;SDS011;53185;47.378;18.922;2024-01-07T03:10:34;14.60;;;7.93;;
58139;SDS011;53185;47.378;18.922;2024-01-07T03:13:01;12.68;;;7.55;;
58139;SDS011;53185;47.378;18.922;2024-01-07T03:15:30;13.40;;;7.55;;
58139;SDS011;53185;47.378;18.922;2024-01-07T03:17:59;15.52;;;7.80;;
58139;SDS011;53185;47.378;18.922;2024-01-07T03:20:27;13.73;;;7.57;;
58139;SDS011;53185;47.378;18.922;2024-01-07T03:22:54;12.40;;;7.30;;
58139;SDS011;53185;47.378;18.922;2024-01-07T03:25:22;13.50;;;7.47;;
58139;SDS011;53185;47.378;18.922;2024-01-07T03:27:49;16.45;;;7.22;;
58139;SDS011;53185;47.378;18.922;2024-01-07T03:30:18;12.00;;;7.30;;
58139;SDS011;53185;47.378;18.922;2024-01-07T03:32:47;12.63;;;7.05;;
58139;SDS011;53185;47.378;18.922;2024-01-07T03:35:14;13.62;;;7.12;;
58139;SDS011;53185;47.378;18.922;2024-01-07T03:37:41;11.55;;;6.85;;
58139;SDS011;53185;47.378;18.922;2024-01-07T03:40:12;13.20;;;7.32;;
58139;SDS011;53185;47.378;18.922;2024-01-07T03:42:40;12.88;;;7.00;;
58139;SDS011;53185;47.378;18.922;2024-01-07T03:45:07;16.67;;;7.43;;
58139;SDS011;53185;47.378;18.922;2024-01-07T03:47:35;12.90;;;7.05;;
58139;SDS011;53185;47.378;18.922;2024-01-07T03:50:02;13.57;;;7.25;;
58139;SDS011;53185;47.378;18.922;2024-01-07T03:52:30;13.13;;;7.43;;
58139;SDS011;53185;47.378;18.922;2024-01-07T03:54:58;13.98;;;7.72;;
58139;SDS011;53185;47.378;18.922;2024-01-07T03:57:26;12.60;;;7.10;;
58139;SDS011;53185;47.378;18.922;2024-01-07T03:59:53;9.30;;;5.97;;
58139;SDS011;53185;47.378;18.922;2024-01-07T04:02:21;15.68;;;7.32;;
58139;SDS011;53185;47.378;18.922;2024-01-07T04:04:53;14.07;;;7.45;;
58139;SDS011;53185;47.378;18.922;2024-01-07T04:07:21;11.93;;;7.22;;
58139;SDS011;53185;47.378;18.922;2024-01-07T04:09:48;15.45;;;6.93;;
58139;SDS011;53185;47.378;18.922;2024-01-07T04:12:17;11.35;;;6.80;;
58139;SDS011;53185;47.378;18.922;2024-01-07T04:14:44;12.70;;;7.07;;
58139;SDS011;53185;47.378;18.922;2024-01-07T04:17:11;13.00;;;6.57;;
58139;SDS011;53185;47.378;18.922;2024-01-07T04:19:39;12.63;;;7.37;;
58139;SDS011;53185;47.378;18.922;2024-01-07T04:22:07;11.68;;;6.20;;
58139;SDS011;53185;47.378;18.922;2024-01-07T04:24:34;9.30;;;5.60;;
58139;SDS011;53185;47.378;18.922;2024-01-07T04:27:03;10.88;;;6.43;;
58139;SDS011;53185;47.378;18.922;2024-01-07T04:29:31;10.65;;;6.03;;
58139;SDS011;53185;47.378;18.922;2024-01-07T04:35:04;12.45;;;6.72;;
58139;SDS011;53185;47.378;18.922;2024-01-07T04:40:22;12.68;;;6.95;;
58139;SDS011;53185;47.378;18.922;2024-01-07T04:45:21;9.93;;;5.70;;
58139;SDS011;53185;47.378;18.922;2024-01-07T04:47:49;11.55;;;6.30;;
58139;SDS011;53185;47.378;18.922;2024-01-07T04:50:19;12.93;;;6.65;;
58139;SDS011;53185;47.378;18.922;2024-01-07T04:52:49;11.52;;;6.37;;
58139;SDS011;53185;47.378;18.922;2024-01-07T04:55:19;8.98;;;5.78;;
58139;SDS011;53185;47.378;18.922;2024-01-07T04:57:49;10.73;;;6.27;;
58139;SDS011;53185;47.378;18.922;2024-01-07T05:03:23;10.98;;;6.03;;
58139;SDS011;53185;47.378;18.922;2024-01-07T05:05:51;12.82;;;6.15;;
58139;SDS011;53185;47.378;18.922;2024-01-07T05:08:19;8.80;;;5.55;;
58139;SDS011;53185;47.378;18.922;2024-01-07T05:10:54;9.48;;;6.40;;
58139;SDS011;53185;47.378;18.922;2024-01-07T05:13:24;11.40;;;5.97;;
58139;SDS011;53185;47.378;18.922;2024-01-07T05:15:53;9.50;;;5.70;;
58139;SDS011;53185;47.378;18.922;2024-01-07T05:18:22;9.95;;;5.68;;
58139;SDS011;53185;47.378;18.922;2024-01-07T05:20:51;8.65;;;5.68;;
58139;SDS011;53185;47.378;18.922;2024-01-07T05:23:20;12.60;;;6.12;;
58139;SDS011;53185;47.378;18.922;2024-01-07T05:25:48;9.93;;;6.22;;
58139;SDS011;53185;47.378;18.922;2024-01-07T05:28:16;10.93;;;6.37;;
58139;SDS011;53185;47.378;18.922;2024-01-07T05:30:48;12.23;;;5.62;;
58139;SDS011;53185;47.378;18.922;2024-01-07T05:33:16;9.68;;;5.70;;
58139;SDS011;53185;47.378;18.922;2024-01-07T05:35:44;8.55;;;5.43;;
58139;SDS011;53185;47.378;18.922;2024-01-07T05:38:13;7.97;;;5.15;;
58139;SDS011;53185;47.378;18.922;2024-01-07T05:40:40;8.38;;;4.95;;
58139;SDS011;53185;47.378;18.922;2024-01-07T05:43:08;9.35;;;4.90;;
58139;SDS011;53185;47.378;18.922;2024-01-07T05:45:36;8.48;;;5.68;;
58139;SDS011;53185;47.378;18.922;2024-01-07T05:48:04;7.60;;;4.72;;
58139;SDS011;53185;47.378;18.922;2024-01-07T05:50:32;8.75;;;4.80;;
58139;SDS011;53185;47.378;18.922;2024-01-07T05:53:00;7.68;;;4.45;;
58139;SDS011;53185;47.378;18.922;2024-01-07T05:55:28;9.25;;;4.75;;
58139;SDS011;53185;47.378;18.922;2024-01-07T05:57:55;13.43;;;5.35;;
58139;SDS011;53185;47.378;18.922;2024-01-07T06:00:23;5.90;;;4.07;;
58139;SDS011;53185;47.378;18.922;2024-01-07T06:02:53;8.68;;;5.03;;
58139;SDS011;53185;47.378;18.922;2024-01-07T06:05:20;8.18;;;4.37;;
58139;SDS011;53185;47.378;18.922;2024-01-07T06:07:47;8.52;;;4.95;;
58139;SDS011;53185;47.378;18.922;2024-01-07T06:10:16;6.53;;;4.07;;
58139;SDS011;53185;47.378;18.922;2024-01-07T06:12:43;7.40;;;4.25;;
58139;SDS011;53185;47.378;18.922;2024-01-07T06:15:11;7.78;;;4.18;;
58139;SDS011;53185;47.378;18.922;2024-01-07T06:17:39;7.30;;;4.12;;
58139;SDS011;53185;47.378;18.922;2024-01-07T06:20:06;5.82;;;3.78;;
58139;SDS011;53185;47.378;18.922;2024-01-07T06:22:35;7.72;;;4.32;;
58139;SDS011;53185;47.378;18.922;2024-01-07T06:25:03;6.93;;;3.65;;
58139;SDS011;53185;47.378;18.922;2024-01-07T06:27:35;6.40;;;4.37;;
58139;SDS011;53185;47.378;18.922;2024-01-07T06:30:03;7.25;;;3.62;;
58139;SDS011;53185;47.378;18.922;2024-01-07T06:32:31;5.03;;;3.62;;
58139;SDS011;53185;47.378;18.922;2024-01-07T06:38:02;6.60;;;3.85;;
58139;SDS011;53185;47.378;18.922;2024-01-07T06:40:29;6.30;;;3.85;;
58139;SDS011;53185;47.378;18.922;2024-01-07T06:52:27;8.57;;;4.25;;
58139;SDS011;53185;47.378;18.922;2024-01-07T06:54:55;8.98;;;3.83;;
58139;SDS011;53185;47.378;18.922;2024-01-07T06:57:23;7.53;;;3.83;;
58139;SDS011;53185;47.378;18.922;2024-01-07T06:59:53;5.90;;;3.37;;
58139;SDS011;53185;47.378;18.922;2024-01-07T07:02:21;6.03;;;3.72;;
58139;SDS011;53185;47.378;18.922;2024-01-07T07:04:48;8.35;;;3.78;;
58139;SDS011;53185;47.378;18.922;2024-01-07T07:07:18;6.78;;;4.20;;
58139;SDS011;53185;47.378;18.922;2024-01-07T07:09:49;5.20;;;3.35;;
58139;SDS011;53185;47.378;18.922;2024-01-07T07:12:18;5.87;;;3.67;;
58139;SDS011;53185;47.378;18.922;2024-01-07T07:14:48;6.68;;;3.90;;
58139;SDS011;53185;47.378;18.922;2024-01-07T07:17:16;8.35;;;4.15;;
58139;SDS011;53185;47.378;18.922;2024-01-07T07:19:44;8.95;;;4.37;;
58139;SDS011;53185;47.378;18.922;2024-01-07T07:22:14;6.55;;;4.03;;
58139;SDS011;53185;47.378;18.922;2024-01-07T07:24:43;8.75;;;4.90;;
58139;SDS011;53185;47.378;18.922;2024-01-07T07:27:11;8.55;;;4.60;;
58139;SDS011;53185;47.378;18.922;2024-01-07T07:29:39;8.38;;;3.87;;
58139;SDS011;53185;47.378;18.922;2024-01-07T07:32:06;7.28;;;4.35;;
58139;SDS011;53185;47.378;18.922;2024-01-07T07:34:34;8.30;;;4.35;;
58139;SDS011;53185;47.378;18.922;2024-01-07T07:37:03;7.95;;;5.10;;
58139;SDS011;53185;47.378;18.922;2024-01-07T07:39:30;7.68;;;4.43;;
58139;SDS011;53185;47.378;18.922;2024-01-07T07:41:59;13.98;;;6.78;;
58139;SDS011;53185;47.378;18.922;2024-01-07T07:44:27;11.32;;;6.20;;
58139;SDS011;53185;47.378;18.922;2024-01-07T07:46:54;14.00;;;7.97;;
58139;SDS011;53185;47.378;18.922;2024-01-07T07:49:21;13.05;;;6.32;;
58139;SDS011;53185;47.378;18.922;2024-01-07T07:51:52;16.02;;;8.55;;
58139;SDS011;53185;47.378;18.922;2024-01-07T07:54:20;16.48;;;8.20;;
58139;SDS011;53185;47.378;18.922;2024-01-07T07:56:48;14.63;;;8.05;;
58139;SDS011;53185;47.378;18.922;2024-01-07T07:59:26;19.75;;;9.98;;
58139;SDS011;53185;47.378;18.922;2024-01-07T08:01:54;20.70;;;9.25;;
58139;SDS011;53185;47.378;18.922;2024-01-07T08:04:25;13.80;;;7.72;;
58139;SDS011;53185;47.378;18.922;2024-01-07T08:06:54;16.23;;;10.45;;
58139;SDS011;53185;47.378;18.922;2024-01-07T08:09:24;19.67;;;9.93;;
58139;SDS011;53185;47.378;18.922;2024-01-07T08:11:53;23.45;;;10.05;;
58139;SDS011;53185;47.378;18.922;2024-01-07T08:14:22;21.15;;;10.60;;
58139;SDS011;53185;47.378;18.922;2024-01-07T08:16:51;18.37;;;9.98;;
58139;SDS011;53185;47.378;18.922;2024-01-07T08:19:18;28.65;;;11.80;;
58139;SDS011;53185;47.378;18.922;2024-01-07T08:21:47;16.45;;;8.85;;
58139;SDS011;53185;47.378;18.922;2024-01-07T08:24:16;18.37;;;9.43;;
58139;SDS011;53185;47.378;18.922;2024-01-07T08:26:54;23.45;;;10.90;;
58139;SDS011;53185;47.378;18.922;2024-01-07T08:35:19;12.75;;;7.45;;
58139;SDS011;53185;47.378;18.922;2024-01-07T08:37:52;11.52;;;7.28;;
58139;SDS011;53185;47.378;18.922;2024-01-07T08:43:32;13.23;;;7.15;;
58139;SDS011;53185;47.378;18.922;2024-01-07T08:59:17;12.25;;;7.10;;
58139;SDS011;53185;47.378;18.922;2024-01-07T09:01:45;13.00;;;6.78;;
58139;SDS011;53185;47.378;18.922;2024-01-07T09:04:13;9.45;;;6.40;;
58139;SDS011;53185;47.378;18.922;2024-01-07T09:06:41;9.73;;;5.85;;
58139;SDS011;53185;47.378;18.922;2024-01-07T09:09:10;10.32;;;6.32;;
58139;SDS011;53185;47.378;18.922;2024-01-07T09:11:38;23.42;;;12.43;;
58139;SDS011;53185;47.378;18.922;2024-01-07T09:14:06;23.58;;;12.30;;
58139;SDS011;53185;47.378;18.922;2024-01-07T09:16:34;18.85;;;9.93;;
58139;SDS011;53185;47.378;18.922;2024-01-07T09:19:02;18.58;;;10.10;;
58139;SDS011;53185;47.378;18.922;2024-01-07T09:21:30;26.35;;;13.52;;
58139;SDS011;53185;47.378;18.922;2024-01-07T09:23:59;19.27;;;9.13;;
58139;SDS011;53185;47.378;18.922;2024-01-07T09:26:29;22.90;;;12.00;;
58139;SDS011;53185;47.378;18.922;2024-01-07T09:28:59;15.95;;;7.68;;
58139;SDS011;53185;47.378;18.922;2024-01-07T09:31:29;15.57;;;8.20;;
58139;SDS011;53185;47.378;18.922;2024-01-07T09:33:57;11.57;;;6.82;;
58139;SDS011;53185;47.378;18.922;2024-01-07T09:36:25;15.50;;;8.40;;
58139;SDS011;53185;47.378;18.922;2024-01-07T09:38:57;20.70;;;10.73;;
58139;SDS011;53185;47.378;18.922;2024-01-07T09:41:26;15.30;;;7.90;;
58139;SDS011;53185;47.378;18.922;2024-01-07T09:43:55;17.20;;;8.68;;
58139;SDS011;53185;47.378;18.922;2024-01-07T09:46:25;11.88;;;7.25;;
58139;SDS011;53185;47.378;18.922;2024-01-07T09:48:54;16.70;;;9.57;;
58139;SDS011;53185;47.378;18.922;2024-01-07T09:51:22;12.80;;;7.72;;
58139;SDS011;53185;47.378;18.922;2024-01-07T09:53:52;12.43;;;7.05;;
58139;SDS011;53185;47.378;18.922;2024-01-07T09:56:25;21.00;;;9.75;;
58139;SDS011;53185;47.378;18.922;2024-01-07T09:58:54;16.87;;;8.90;;
58139;SDS011;53185;47.378;18.922;2024-01-07T10:01:22;16.30;;;7.95;;
58139;SDS011;53185;47.378;18.922;2024-01-07T10:07:15;13.40;;;7.18;;
58139;SDS011;53185;47.378;18.922;2024-01-07T10:13:23;10.27;;;6.10;;
58139;SDS011;53185;47.378;18.922;2024-01-07T10:19:25;12.85;;;5.62;;
58139;SDS011;53185;47.378;18.922;2024-01-07T10:25:49;10.93;;;6.18;;
58139;SDS011;53185;47.378;18.922;2024-01-07T10:31:40;10.67;;;6.03;;
58139;SDS011;53185;47.378;18.922;2024-01-07T10:34:10;13.75;;;7.40;;
58139;SDS011;53185;47.378;18.922;2024-01-07T10:36:38;11.15;;;6.07;;
58139;SDS011;53185;47.378;18.922;2024-01-07T10:39:07;9.25;;;5.68;;
58139;SDS011;53185;47.378;18.922;2024-01-07T10:41:36;10.48;;;4.95;;
58139;SDS011;53185;47.378;18.922;2024-01-07T10:44:04;7.20;;;4.10;;
58139;SDS011;53185;47.378;18.922;2024-01-07T10:46:32;9.05;;;5.43;;
58139;SDS011;53185;47.378;18.922;2024-01-07T10:49:04;12.65;;;6.18;;
58139;SDS011;53185;47.378;18.922;2024-01-07T10:51:37;18.35;;;7.82;;
58139;SDS011;53185;47.378;18.922;2024-01-07T10:54:05;6.57;;;4.70;;
58139;SDS011;53185;47.378;18.922;2024-01-07T10:56:57;6.63;;;4.73;;
58139;SDS011;53185;47.378;18.922;2024-01-07T10:59:28;10.93;;;5.50;;
58139;SDS011;53185;47.378;18.922;2024-01-07T11:02:20;25.85;;;10.45;;
58139;SDS011;53185;47.378;18.922;2024-01-07T11:08:26;12.13;;;5.90;;
58139;SDS011;53185;47.378;18.922;2024-01-07T11:11:01;9.20;;;5.57;;
58139;SDS011;53185;47.378;18.922;2024-01-07T11:13:44;9.35;;;5.45;;
58139;SDS011;53185;47.378;18.922;2024-01-07T11:19:52;11.27;;;5.03;;
58139;SDS011;53185;47.378;18.922;2024-01-07T11:22:27;9.85;;;5.45;;
58139;SDS011;53185;47.378;18.922;2024-01-07T11:24:58;8.02;;;5.28;;
58139;SDS011;53185;47.378;18.922;2024-01-07T11:27:29;8.77;;;4.70;;
58139;SDS011;53185;47.378;18.922;2024-01-07T11:30:18;8.77;;;4.37;;
58139;SDS011;53185;47.378;18.922;2024-01-07T11:33:42;6.50;;;3.97;;
58139;SDS011;53185;47.378;18.922;2024-01-07T11:36:12;11.40;;;5.90;;
58139;SDS011;53185;47.378;18.922;2024-01-07T11:38:41;10.50;;;5.70;;
58139;SDS011;53185;47.378;18.922;2024-01-07T11:41:28;8.77;;;5.68;;
58139;SDS011;53185;47.378;18.922;2024-01-07T11:54:31;9.18;;;5.12;;
58139;SDS011;53185;47.378;18.922;2024-01-07T11:56:59;9.55;;;5.35;;
58139;SDS011;53185;47.378;18.922;2024-01-07T11:59:32;10.65;;;4.53;;
58139;SDS011;53185;47.378;18.922;2024-01-07T12:05:32;10.38;;;4.75;;
58139;SDS011;53185;47.378;18.922;2024-01-07T12:11:07;13.62;;;5.82;;
58139;SDS011;53185;47.378;18.922;2024-01-07T12:26:20;10.20;;;5.57;;
58139;SDS011;53185;47.378;18.922;2024-01-07T12:35:47;7.55;;;4.50;;
58139;SDS011;53185;47.378;18.922;2024-01-07T12:38:15;10.48;;;4.93;;
58139;SDS011;53185;47.378;18.922;2024-01-07T12:40:42;9.23;;;5.37;;
58139;SDS011;53185;47.378;18.922;2024-01-07T12:43:09;10.43;;;4.78;;
58139;SDS011;53185;47.378;18.922;2024-01-07T12:45:37;10.05;;;5.28;;
58139;SDS011;53185;47.378;18.922;2024-01-07T12:48:05;10.85;;;5.07;;
58139;SDS011;53185;47.378;18.922;2024-01-07T12:50:32;12.43;;;6.25;;
58139;SDS011;53185;47.378;18.922;2024-01-07T12:53:04;9.52;;;5.03;;
58139;SDS011;53185;47.378;18.922;2024-01-07T12:55:32;12.13;;;6.03;;
58139;SDS011;53185;47.378;18.922;2024-01-07T12:58:00;11.23;;;5.75;;
58139;SDS011;53185;47.378;18.922;2024-01-07T13:00:32;10.15;;;5.03;;
58139;SDS011;53185;47.378;18.922;2024-01-07T13:03:02;9.68;;;4.97;;
58139;SDS011;53185;47.378;18.922;2024-01-07T13:05:32;7.35;;;4.60;;
58139;SDS011;53185;47.378;18.922;2024-01-07T13:08:00;13.30;;;4.82;;
58139;SDS011;53185;47.378;18.922;2024-01-07T13:12:58;7.93;;;5.10;;
58139;SDS011;53185;47.378;18.922;2024-01-07T13:15:38;5.47;;;3.47;;
58139;SDS011;53185;47.378;18.922;2024-01-07T13:18:06;10.75;;;4.85;;
58139;SDS011;53185;47.378;18.922;2024-01-07T13:20:34;9.02;;;5.05;;
58139;SDS011;53185;47.378;18.922;2024-01-07T13:23:07;10.52;;;5.78;;
58139;SDS011;53185;47.378;18.922;2024-01-07T13:25:34;13.48;;;5.55;;
58139;SDS011;53185;47.378;18.922;2024-01-07T13:28:02;12.07;;;5.53;;
58139;SDS011;53185;47.378;18.922;2024-01-07T13:30:32;10.43;;;5.62;;
58139;SDS011;53185;47.378;18.922;2024-01-07T13:33:01;11.25;;;6.10;;
58139;SDS011;53185;47.378;18.922;2024-01-07T13:35:33;12.45;;;6.10;;
58139;SDS011;53185;47.378;18.922;2024-01-07T13:38:05;11.48;;;6.18;;
58139;SDS011;53185;47.378;18.922;2024-01-07T13:40:33;9.68;;;5.32;;
58139;SDS011;53185;47.378;18.922;2024-01-07T13:43:00;12.48;;;6.15;;
58139;SDS011;53185;47.378;18.922;2024-01-07T13:45:28;11.52;;;6.47;;
58139;SDS011;53185;47.378;18.922;2024-01-07T13:47:57;13.48;;;7.05;;
58139;SDS011;53185;47.378;18.922;2024-01-07T13:50:26;8.48;;;4.80;;
58139;SDS011;53185;47.378;18.922;2024-01-07T13:52:53;15.32;;;8.30;;
58139;SDS011;53185;47.378;18.922;2024-01-07T13:55:21;12.82;;;7.85;;
58139;SDS011;53185;47.378;18.922;2024-01-07T13:57:50;16.52;;;7.57;;
58139;SDS011;53185;47.378;18.922;2024-01-07T14:00:17;17.30;;;7.43;;
58139;SDS011;53185;47.378;18.922;2024-01-07T14:06:19;24.23;;;9.93;;
58139;SDS011;53185;47.378;18.922;2024-01-07T14:12:18;12.52;;;6.70;;
58139;SDS011;53185;47.378;18.922;2024-01-07T14:18:08;9.60;;;5.62;;
58139;SDS011;53185;47.378;18.922;2024-01-07T14:20:42;10.77;;;6.18;;
58139;SDS011;53185;47.378;18.922;2024-01-07T14:23:11;14.00;;;6.93;;
58139;SDS011;53185;47.378;18.922;2024-01-07T14:25:40;10.48;;;5.70;;
58139;SDS011;53185;47.378;18.922;2024-01-07T14:28:09;12.48;;;6.80;;
58139;SDS011;53185;47.378;18.922;2024-01-07T14:30:37;14.20;;;6.25;;
58139;SDS011;53185;47.378;18.922;2024-01-07T14:33:05;14.95;;;7.35;;
58139;SDS011;53185;47.378;18.922;2024-01-07T14:35:36;8.43;;;6.10;;
58139;SDS011;53185;47.378;18.922;2024-01-07T14:38:04;10.70;;;6.10;;
58139;SDS011;53185;47.378;18.922;2024-01-07T14:43:04;12.95;;;7.07;;
58139;SDS011;53185;47.378;18.922;2024-01-07T14:45:32;14.25;;;7.20;;
58139;SDS011;53185;47.378;18.922;2024-01-07T14:48:01;19.10;;;6.72;;
58139;SDS011;53185;47.378;18.922;2024-01-07T14:50:29;9.98;;;6.03;;
58139;SDS011;53185;47.378;18.922;2024-01-07T14:53:07;11.93;;;6.10;;
58139;SDS011;53185;47.378;18.922;2024-01-07T14:55:41;15.00;;;7.35;;
58139;SDS011;53185;47.378;18.922;2024-01-07T14:58:09;14.80;;;7.15;;
58139;SDS011;53185;47.378;18.922;2024-01-07T15:00:38;11.93;;;5.95;;
58139;SDS011;53185;47.378;18.922;2024-01-07T15:03:06;13.02;;;7.82;;
58139;SDS011;53185;47.378;18.922;2024-01-07T15:05:34;13.10;;;6.70;;
58139;SDS011;53185;47.378;18.922;2024-01-07T15:08:03;10.68;;;6.22;;
58139;SDS011;53185;47.378;18.922;2024-01-07T15:10:32;14.07;;;6.78;;
58139;SDS011;53185;47.378;18.922;2024-01-07T15:16:21;12.52;;;6.28;;
58139;SDS011;53185;47.378;18.922;2024-01-07T15:18:49;18.25;;;8.05;;
58139;SDS011;53185;47.378;18.922;2024-01-07T15:21:19;13.62;;;6.50;;
58139;SDS011;53185;47.378;18.922;2024-01-07T15:23:47;18.27;;;7.22;;
58139;SDS011;53185;47.378;18.922;2024-01-07T15:26:15;11.35;;;6.37;;
58139;SDS011;53185;47.378;18.922;2024-01-07T15:28:44;11.15;;;5.95;;
58139;SDS011;53185;47.378;18.922;2024-01-07T15:31:11;13.85;;;7.12;;
58139;SDS011;53185;47.378;18.922;2024-01-07T15:33:39;12.27;;;7.18;;
58139;SDS011;53185;47.378;18.922;2024-01-07T15:36:07;13.15;;;7.22;;
58139;SDS011;53185;47.378;18.922;2024-01-07T15:38:34;35.25;;;12.23;;
58139;SDS011;53185;47.378;18.922;2024-01-07T15:44:34;14.65;;;7.25;;
58139;SDS011;53185;47.378;18.922;2024-01-07T15:47:03;15.13;;;7.72;;
58139;SDS011;53185;47.378;18.922;2024-01-07T15:49:32;15.10;;;7.35;;
58139;SDS011;53185;47.378;18.922;2024-01-07T15:52:01;17.20;;;7.65;;
58139;SDS011;53185;47.378;18.922;2024-01-07T15:54:29;11.60;;;5.82;;
58139;SDS011;53185;47.378;18.922;2024-01-07T15:56:57;15.10;;;7.68;;
58139;SDS011;53185;47.378;18.922;2024-01-07T16:02:56;16.45;;;7.25;;
58139;SDS011;53185;47.378;18.922;2024-01-07T16:05:26;18.52;;;9.18;;
58139;SDS011;53185;47.378;18.922;2024-01-07T16:07:56;18.55;;;9.00;;
58139;SDS011;53185;47.378;18.922;2024-01-07T16:10:24;20.15;;;9.15;;
58139;SDS011;53185;47.378;18.922;2024-01-07T16:12:53;18.33;;;8.07;;
58139;SDS011;53185;47.378;18.922;2024-01-07T16:15:21;14.10;;;7.07;;
58139;SDS011;53185;47.378;18.922;2024-01-07T16:17:52;15.73;;;8.10;;
58139;SDS011;53185;47.378;18.922;2024-01-07T16:20:22;16.25;;;7.07;;
58139;SDS011;53185;47.378;18.922;2024-01-07T16:22:52;17.20;;;7.90;;
58139;SDS011;53185;47.378;18.922;2024-01-07T16:25:20;11.65;;;6.55;;
58139;SDS011;53185;47.378;18.922;2024-01-07T16:30:18;14.60;;;7.47;;
58139;SDS011;53185;47.378;18.922;2024-01-07T16:32:57;10.88;;;6.68;;
58139;SDS011;53185;47.378;18.922;2024-01-07T16:35:30;23.58;;;7.55;;
58139;SDS011;53185;47.378;18.922;2024-01-07T16:37:59;17.58;;;7.95;;
58139;SDS011;53185;47.378;18.922;2024-01-07T16:40:27;18.12;;;8.20;;
58139;SDS011;53185;47.378;18.922;2024-01-07T16:42:55;16.98;;;7.10;;
58139;SDS011;53185;47.378;18.922;2024-01-07T16:45:23;11.60;;;6.53;;
58139;SDS011;53185;47.378;18.922;2024-01-07T16:47:50;10.15;;;6.47;;
58139;SDS011;53185;47.378;18.922;2024-01-07T16:50:18;17.30;;;8.13;;
58139;SDS011;53185;47.378;18.922;2024-01-07T16:52:52;14.48;;;7.85;;
58139;SDS011;53185;47.378;18.922;2024-01-07T16:55:20;15.45;;;7.18;;
58139;SDS011;53185;47.378;18.922;2024-01-07T16:57:48;15.50;;;7.55;;
58139;SDS011;53185;47.378;18.922;2024-01-07T17:00:17;12.40;;;6.40;;
58139;SDS011;53185;47.378;18.922;2024-01-07T17:02:47;15.25;;;7.97;;